sensor_id;sensor_type;location;lat;lon;timestamp;pressure;altitude;pressure_sealevel;temperature;humidity
60976;BME280;46849;48.154;17.042;2023-02-03T00:02:09;99541.28;;;0.47;100.00
60976;BME280;46849;48.154;17.042;2023-02-03T00:04:54;99535.22;;;0.48;100.00
60976;BME280;46849;48.154;17.042;2023-02-03T00:07:39;99541.28;;;0.45;100.00
60976;BME280;46849;48.154;17.042;2023-02-03T00:10:24;99552.38;;;0.52;100.00
60976;BME280;46849;48.154;17.042;2023-02-03T00:13:08;99541.03;;;0.63;100.00
60976;BME280;46849;48.154;17.042;2023-02-03T00:15:53;99538.53;;;0.58;100.00
60976;BME280;46849;48.154;17.042;2023-02-03T00:18:38;99548.59;;;0.73;100.00
60976;BME280;46849;48.154;17.042;2023-02-03T00:21:22;99536.50;;;0.77;100.00
60976;BME280;46849;48.154;17.042;2023-02-03T00:24:07;99544.31;;;0.72;100.00
60976;BME280;46849;48.154;17.042;2023-02-03T00:26:52;99543.47;;;0.70;100.00
60976;BME280;46849;48.154;17.042;2023-02-03T00:29:36;99552.13;;;0.68;100.00
60976;BME280;46849;48.154;17.042;2023-02-03T00:32:21;99547.75;;;0.73;100.00
60976;BME280;46849;48.154;17.042;2023-02-03T00:35:06;99540.00;;;0.75;100.00
60976;BME280;46849;48.154;17.042;2023-02-03T00:37:52;99529.88;;;0.60;100.00
60976;BME280;46849;48.154;17.042;2023-02-03T00:40:39;99548.81;;;0.59;100.00
60976;BME280;46849;48.154;17.042;2023-02-03T00:43:23;99547.00;;;0.66;100.00
60976;BME280;46849;48.154;17.042;2023-02-03T00:46:08;99555.53;;;0.71;100.00
60976;BME280;46849;48.154;17.042;2023-02-03T00:48:53;99558.28;;;0.59;100.00
60976;BME280;46849;48.154;17.042;2023-02-03T00:51:38;99561.69;;;0.61;100.00
60976;BME280;46849;48.154;17.042;2023-02-03T00:54:22;99565.22;;;0.55;100.00
60976;BME280;46849;48.154;17.042;2023-02-03T00:57:07;99556.78;;;0.44;100.00
60976;BME280;46849;48.154;17.042;2023-02-03T00:59:52;99552.44;;;0.46;100.00
60976;BME280;46849;48.154;17.042;2023-02-03T01:02:38;99561.78;;;0.55;100.00
60976;BME280;46849;48.154;17.042;2023-02-03T01:05:23;99567.06;;;0.47;100.00
60976;BME280;46849;48.154;17.042;2023-02-03T01:08:08;99560.28;;;0.40;100.00
60976;BME280;46849;48.154;17.042;2023-02-03T01:10:52;99545.63;;;0.42;100.00
60976;BME280;46849;48.154;17.042;2023-02-03T01:13:39;99556.81;;;0.42;100.00
60976;BME280;46849;48.154;17.042;2023-02-03T01:16:27;99558.56;;;0.39;100.00
60976;BME280;46849;48.154;17.042;2023-02-03T01:19:12;99564.53;;;0.44;100.00
60976;BME280;46849;48.154;17.042;2023-02-03T01:21:58;99555.03;;;0.44;100.00
60976;BME280;46849;48.154;17.042;2023-02-03T01:24:43;99555.00;;;0.47;100.00
60976;BME280;46849;48.154;17.042;2023-02-03T01:27:31;99546.41;;;0.48;100.00
60976;BME280;46849;48.154;17.042;2023-02-03T01:30:17;99547.31;;;0.44;100.00
60976;BME280;46849;48.154;17.042;2023-02-03T01:33:01;99550.69;;;0.48;100.00
60976;BME280;46849;48.154;17.042;2023-02-03T01:35:46;99547.22;;;0.52;100.00
60976;BME280;46849;48.154;17.042;2023-02-03T01:38:31;99560.81;;;0.60;100.00
60976;BME280;46849;48.154;17.042;2023-02-03T01:41:19;99555.84;;;0.48;100.00
60976;BME280;46849;48.154;17.042;2023-02-03T01:50:18;99562.59;;;0.58;100.00
60976;BME280;46849;48.154;17.042;2023-02-03T01:53:08;99572.88;;;0.60;100.00
60976;BME280;46849;48.154;17.042;2023-02-03T01:55:55;99566.84;;;0.61;100.00
60976;BME280;46849;48.154;17.042;2023-02-03T01:58:42;99570.44;;;0.52;100.00
60976;BME280;46849;48.154;17.042;2023-02-03T02:01:28;99572.91;;;0.58;100.00
60976;BME280;46849;48.154;17.042;2023-02-03T02:04:13;99575.53;;;0.55;100.00
60976;BME280;46849;48.154;17.042;2023-02-03T02:06:58;99578.13;;;0.55;100.00
60976;BME280;46849;48.154;17.042;2023-02-03T02:09:44;99580.91;;;0.40;100.00
60976;BME280;46849;48.154;17.042;2023-02-03T02:12:29;99572.44;;;0.30;100.00
60976;BME280;46849;48.154;17.042;2023-02-03T02:15:15;99570.00;;;0.19;100.00
60976;BME280;46849;48.154;17.042;2023-02-03T02:18:08;99574.09;;;0.35;100.00
60976;BME280;46849;48.154;17.042;2023-02-03T02:27:08;99565.53;;;0.32;100.00
60976;BME280;46849;48.154;17.042;2023-02-03T02:30:33;99568.25;;;0.21;100.00
60976;BME280;46849;48.154;17.042;2023-02-03T02:39:36;99560.53;;;0.21;100.00
60976;BME280;46849;48.154;17.042;2023-02-03T02:42:43;99558.81;;;0.20;100.00
60976;BME280;46849;48.154;17.042;2023-02-03T02:45:39;99553.69;;;0.17;100.00
60976;BME280;46849;48.154;17.042;2023-02-03T02:51:30;99543.16;;;0.35;100.00
60976;BME280;46849;48.154;17.042;2023-02-03T02:54:20;99546.59;;;0.33;100.00
60976;BME280;46849;48.154;17.042;2023-02-03T02:57:09;99542.19;;;0.41;100.00
60976;BME280;46849;48.154;17.042;2023-02-03T02:59:55;99538.09;;;0.29;100.00
60976;BME280;46849;48.154;17.042;2023-02-03T03:02:42;99531.25;;;0.25;100.00
60976;BME280;46849;48.154;17.042;2023-02-03T03:05:26;99525.97;;;0.33;100.00
60976;BME280;46849;48.154;17.042;2023-02-03T03:08:13;99524.75;;;0.57;100.00
60976;BME280;46849;48.154;17.042;2023-02-03T03:10:59;99522.78;;;0.77;100.00
60976;BME280;46849;48.154;17.042;2023-02-03T03:13:49;99514.91;;;0.84;100.00
60976;BME280;46849;48.154;17.042;2023-02-03T03:16:36;99517.38;;;0.91;100.00
60976;BME280;46849;48.154;17.042;2023-02-03T03:19:24;99518.91;;;1.03;100.00
60976;BME280;46849;48.154;17.042;2023-02-03T03:22:12;99524.13;;;0.98;100.00
60976;BME280;46849;48.154;17.042;2023-02-03T03:25:03;99528.56;;;0.91;100.00
60976;BME280;46849;48.154;17.042;2023-02-03T03:27:58;99518.09;;;0.99;100.00
60976;BME280;46849;48.154;17.042;2023-02-03T03:30:44;99520.94;;;0.83;100.00
60976;BME280;46849;48.154;17.042;2023-02-03T03:33:29;99524.16;;;0.96;100.00
60976;BME280;46849;48.154;17.042;2023-02-03T03:39:10;99530.13;;;1.00;100.00
60976;BME280;46849;48.154;17.042;2023-02-03T03:42:06;99528.16;;;1.15;100.00
60976;BME280;46849;48.154;17.042;2023-02-03T03:45:00;99521.13;;;1.23;100.00
60976;BME280;46849;48.154;17.042;2023-02-03T03:47:53;99523.66;;;1.26;100.00
60976;BME280;46849;48.154;17.042;2023-02-03T03:50:48;99521.75;;;1.36;100.00
60976;BME280;46849;48.154;17.042;2023-02-03T03:53:38;99523.88;;;1.14;100.00
60976;BME280;46849;48.154;17.042;2023-02-03T03:56:31;99530.72;;;1.15;100.00
60976;BME280;46849;48.154;17.042;2023-02-03T03:59:19;99539.22;;;1.21;100.00
60976;BME280;46849;48.154;17.042;2023-02-03T04:02:05;99547.72;;;1.28;100.00
60976;BME280;46849;48.154;17.042;2023-02-03T04:04:50;99543.38;;;1.30;100.00
60976;BME280;46849;48.154;17.042;2023-02-03T04:07:40;99555.34;;;1.34;100.00
60976;BME280;46849;48.154;17.042;2023-02-03T04:10:37;99551.22;;;1.24;100.00
60976;BME280;46849;48.154;17.042;2023-02-03T04:13:22;99555.63;;;1.19;100.00
60976;BME280;46849;48.154;17.042;2023-02-03T04:16:07;99538.28;;;1.27;100.00
60976;BME280;46849;48.154;17.042;2023-02-03T04:18:52;99531.50;;;1.20;100.00
60976;BME280;46849;48.154;17.042;2023-02-03T04:21:36;99526.97;;;1.33;100.00
60976;BME280;46849;48.154;17.042;2023-02-03T04:24:21;99521.69;;;1.39;100.00
60976;BME280;46849;48.154;17.042;2023-02-03T04:27:06;99519.09;;;1.41;100.00
60976;BME280;46849;48.154;17.042;2023-02-03T04:29:50;99513.03;;;1.43;100.00
60976;BME280;46849;48.154;17.042;2023-02-03T04:32:35;99511.44;;;1.36;100.00
60976;BME280;46849;48.154;17.042;2023-02-03T04:35:20;99511.81;;;1.16;100.00
60976;BME280;46849;48.154;17.042;2023-02-03T04:38:05;99501.38;;;1.22;100.00
60976;BME280;46849;48.154;17.042;2023-02-03T04:40:49;99493.66;;;1.20;100.00
60976;BME280;46849;48.154;17.042;2023-02-03T04:43:34;99494.63;;;1.13;100.00
60976;BME280;46849;48.154;17.042;2023-02-03T04:46:19;99492.91;;;1.14;100.00
60976;BME280;46849;48.154;17.042;2023-02-03T04:49:04;99493.13;;;1.01;100.00
60976;BME280;46849;48.154;17.042;2023-02-03T04:51:49;99486.28;;;0.98;100.00
60976;BME280;46849;48.154;17.042;2023-02-03T04:54:35;99480.34;;;0.93;100.00
60976;BME280;46849;48.154;17.042;2023-02-03T04:57:19;99480.25;;;1.00;100.00
60976;BME280;46849;48.154;17.042;2023-02-03T05:00:05;99476.69;;;1.05;100.00
60976;BME280;46849;48.154;17.042;2023-02-03T05:02:49;99475.00;;;1.04;100.00
60976;BME280;46849;48.154;17.042;2023-02-03T05:05:34;99463.75;;;1.07;100.00
60976;BME280;46849;48.154;17.042;2023-02-03T05:08:18;99466.03;;;1.26;100.00
60976;BME280;46849;48.154;17.042;2023-02-03T05:11:03;99475.22;;;0.90;100.00
60976;BME280;46849;48.154;17.042;2023-02-03T05:13:48;99461.81;;;0.71;100.00
60976;BME280;46849;48.154;17.042;2023-02-03T05:16:33;99471.38;;;0.64;100.00
60976;BME280;46849;48.154;17.042;2023-02-03T05:19:17;99469.75;;;0.58;100.00
60976;BME280;46849;48.154;17.042;2023-02-03T05:22:02;99479.84;;;0.72;100.00
60976;BME280;46849;48.154;17.042;2023-02-03T05:24:47;99468.69;;;0.69;100.00
60976;BME280;46849;48.154;17.042;2023-02-03T05:27:32;99459.28;;;0.68;100.00
60976;BME280;46849;48.154;17.042;2023-02-03T05:30:17;99460.94;;;0.70;100.00
60976;BME280;46849;48.154;17.042;2023-02-03T05:33:01;99448.22;;;1.97;100.00
60976;BME280;46849;48.154;17.042;2023-02-03T05:35:46;99454.34;;;2.31;100.00
60976;BME280;46849;48.154;17.042;2023-02-03T05:38:30;99440.59;;;1.91;100.00
60976;BME280;46849;48.154;17.042;2023-02-03T05:41:15;99438.56;;;1.64;100.00
60976;BME280;46849;48.154;17.042;2023-02-03T05:44:25;99438.00;;;1.50;100.00
60976;BME280;46849;48.154;17.042;2023-02-03T05:47:10;99434.72;;;1.41;100.00
60976;BME280;46849;48.154;17.042;2023-02-03T05:49:55;99439.06;;;1.39;100.00
60976;BME280;46849;48.154;17.042;2023-02-03T05:52:39;99437.31;;;1.41;100.00
60976;BME280;46849;48.154;17.042;2023-02-03T05:55:25;99429.94;;;1.21;100.00
60976;BME280;46849;48.154;17.042;2023-02-03T05:58:10;99437.56;;;1.29;100.00
60976;BME280;46849;48.154;17.042;2023-02-03T06:00:54;99427.38;;;1.19;100.00
60976;BME280;46849;48.154;17.042;2023-02-03T06:03:39;99430.69;;;1.26;100.00
60976;BME280;46849;48.154;17.042;2023-02-03T06:06:24;99417.69;;;1.31;100.00
60976;BME280;46849;48.154;17.042;2023-02-03T06:09:08;99417.63;;;1.34;100.00
60976;BME280;46849;48.154;17.042;2023-02-03T06:11:53;99418.50;;;1.34;100.00
60976;BME280;46849;48.154;17.042;2023-02-03T06:14:38;99425.50;;;1.28;100.00
60976;BME280;46849;48.154;17.042;2023-02-03T06:17:23;99418.63;;;1.28;100.00
60976;BME280;46849;48.154;17.042;2023-02-03T06:20:08;99416.19;;;1.20;100.00
60976;BME280;46849;48.154;17.042;2023-02-03T06:22:53;99411.03;;;1.20;100.00
60976;BME280;46849;48.154;17.042;2023-02-03T06:25:38;99408.44;;;1.22;100.00
60976;BME280;46849;48.154;17.042;2023-02-03T06:28:22;99396.47;;;1.16;100.00
60976;BME280;46849;48.154;17.042;2023-02-03T06:31:07;99392.34;;;1.07;100.00
60976;BME280;46849;48.154;17.042;2023-02-03T06:33:51;99388.94;;;1.05;100.00
60976;BME280;46849;48.154;17.042;2023-02-03T06:36:36;99383.75;;;1.07;100.00
60976;BME280;46849;48.154;17.042;2023-02-03T06:39:21;99389.34;;;0.83;100.00
60976;BME280;46849;48.154;17.042;2023-02-03T06:42:06;99385.25;;;0.73;100.00
60976;BME280;46849;48.154;17.042;2023-02-03T06:44:51;99381.81;;;0.72;100.00
60976;BME280;46849;48.154;17.042;2023-02-03T06:47:40;99386.06;;;0.73;100.00
60976;BME280;46849;48.154;17.042;2023-02-03T06:50:25;99395.31;;;0.85;100.00
60976;BME280;46849;48.154;17.042;2023-02-03T06:53:10;99397.19;;;0.77;100.00
60976;BME280;46849;48.154;17.042;2023-02-03T06:55:55;99389.47;;;0.77;100.00
60976;BME280;46849;48.154;17.042;2023-02-03T06:58:40;99393.00;;;0.71;100.00
60976;BME280;46849;48.154;17.042;2023-02-03T07:01:25;99390.28;;;0.79;100.00
60976;BME280;46849;48.154;17.042;2023-02-03T07:04:09;99383.50;;;0.75;100.00
60976;BME280;46849;48.154;17.042;2023-02-03T07:06:57;99383.31;;;0.84;100.00
60976;BME280;46849;48.154;17.042;2023-02-03T07:09:42;99378.03;;;0.91;100.00
60976;BME280;46849;48.154;17.042;2023-02-03T07:12:27;99382.41;;;0.87;100.00
60976;BME280;46849;48.154;17.042;2023-02-03T07:15:12;99377.94;;;0.95;100.00
60976;BME280;46849;48.154;17.042;2023-02-03T07:17:56;99376.00;;;1.07;100.00
60976;BME280;46849;48.154;17.042;2023-02-03T07:20:41;99371.81;;;1.03;100.00
60976;BME280;46849;48.154;17.042;2023-02-03T07:23:28;99371.88;;;1.00;100.00
60976;BME280;46849;48.154;17.042;2023-02-03T07:26:13;99378.81;;;0.96;100.00
60976;BME280;46849;48.154;17.042;2023-02-03T07:28:58;99382.31;;;0.92;100.00
60976;BME280;46849;48.154;17.042;2023-02-03T07:31:43;99375.56;;;0.86;100.00
60976;BME280;46849;48.154;17.042;2023-02-03T07:34:28;99384.75;;;1.01;100.00
60976;BME280;46849;48.154;17.042;2023-02-03T07:37:12;99377.19;;;0.90;100.00
60976;BME280;46849;48.154;17.042;2023-02-03T07:39:57;99376.34;;;0.90;100.00
60976;BME280;46849;48.154;17.042;2023-02-03T07:42:46;99386.91;;;0.76;100.00
60976;BME280;46849;48.154;17.042;2023-02-03T07:45:31;99386.00;;;0.78;100.00
60976;BME280;46849;48.154;17.042;2023-02-03T07:48:17;99376.47;;;0.82;100.00
60976;BME280;46849;48.154;17.042;2023-02-03T07:51:02;99380.81;;;0.81;100.00
60976;BME280;46849;48.154;17.042;2023-02-03T07:53:46;99369.59;;;0.82;100.00
60976;BME280;46849;48.154;17.042;2023-02-03T07:56:31;99376.16;;;0.99;100.00
60976;BME280;46849;48.154;17.042;2023-02-03T07:59:16;99377.84;;;1.00;100.00
60976;BME280;46849;48.154;17.042;2023-02-03T08:02:01;99369.28;;;1.00;100.00
60976;BME280;46849;48.154;17.042;2023-02-03T08:04:46;99367.50;;;1.02;100.00
60976;BME280;46849;48.154;17.042;2023-02-03T08:07:30;99363.31;;;0.96;100.00
60976;BME280;46849;48.154;17.042;2023-02-03T08:10:15;99353.00;;;0.96;100.00
60976;BME280;46849;48.154;17.042;2023-02-03T08:13:01;99346.16;;;0.93;100.00
60976;BME280;46849;48.154;17.042;2023-02-03T08:15:46;99341.75;;;0.98;100.00
60976;BME280;46849;48.154;17.042;2023-02-03T08:18:31;99332.31;;;0.97;100.00
60976;BME280;46849;48.154;17.042;2023-02-03T08:21:16;99317.41;;;1.12;100.00
60976;BME280;46849;48.154;17.042;2023-02-03T08:24:00;99314.28;;;0.96;100.00
60976;BME280;46849;48.154;17.042;2023-02-03T08:26:45;99317.09;;;0.83;100.00
60976;BME280;46849;48.154;17.042;2023-02-03T08:29:30;99296.78;;;1.10;100.00
60976;BME280;46849;48.154;17.042;2023-02-03T08:32:17;99297.63;;;1.13;100.00
60976;BME280;46849;48.154;17.042;2023-02-03T08:35:02;99293.25;;;1.15;100.00
60976;BME280;46849;48.154;17.042;2023-02-03T08:37:47;99296.44;;;1.26;100.00
60976;BME280;46849;48.154;17.042;2023-02-03T08:40:31;99299.66;;;1.38;100.00
60976;BME280;46849;48.154;17.042;2023-02-03T08:43:16;99299.34;;;1.52;100.00
60976;BME280;46849;48.154;17.042;2023-02-03T08:46:03;99286.47;;;1.48;100.00
60976;BME280;46849;48.154;17.042;2023-02-03T08:48:48;99281.50;;;1.41;100.00
60976;BME280;46849;48.154;17.042;2023-02-03T08:51:33;99279.63;;;1.47;100.00
60976;BME280;46849;48.154;17.042;2023-02-03T08:54:18;99280.22;;;1.59;100.00
60976;BME280;46849;48.154;17.042;2023-02-03T08:57:03;99278.84;;;1.44;100.00
60976;BME280;46849;48.154;17.042;2023-02-03T08:59:47;99265.56;;;1.61;100.00
60976;BME280;46849;48.154;17.042;2023-02-03T09:02:33;99268.88;;;1.66;100.00
60976;BME280;46849;48.154;17.042;2023-02-03T09:05:17;99257.88;;;1.58;100.00
60976;BME280;46849;48.154;17.042;2023-02-03T09:08:02;99253.22;;;1.72;100.00
60976;BME280;46849;48.154;17.042;2023-02-03T09:10:46;99254.84;;;1.77;100.00
60976;BME280;46849;48.154;17.042;2023-02-03T09:13:32;99255.13;;;2.01;100.00
60976;BME280;46849;48.154;17.042;2023-02-03T09:16:18;99243.22;;;1.95;100.00
60976;BME280;46849;48.154;17.042;2023-02-03T09:19:05;99248.22;;;2.01;100.00
60976;BME280;46849;48.154;17.042;2023-02-03T09:21:50;99239.56;;;2.04;100.00
60976;BME280;46849;48.154;17.042;2023-02-03T09:24:35;99235.91;;;2.11;100.00
60976;BME280;46849;48.154;17.042;2023-02-03T09:27:19;99241.00;;;2.14;100.00
60976;BME280;46849;48.154;17.042;2023-02-03T09:30:05;99236.88;;;2.07;100.00
60976;BME280;46849;48.154;17.042;2023-02-03T09:32:51;99221.34;;;2.08;100.00
60976;BME280;46849;48.154;17.042;2023-02-03T09:35:38;99222.13;;;2.11;100.00
60976;BME280;46849;48.154;17.042;2023-02-03T09:38:24;99223.25;;;2.33;100.00
60976;BME280;46849;48.154;17.042;2023-02-03T09:46:50;99211.56;;;2.20;100.00
60976;BME280;46849;48.154;17.042;2023-02-03T09:49:56;99200.72;;;2.05;100.00
60976;BME280;46849;48.154;17.042;2023-02-03T09:52:42;99202.59;;;2.32;100.00
60976;BME280;46849;48.154;17.042;2023-02-03T09:55:42;99185.09;;;2.42;100.00
60976;BME280;46849;48.154;17.042;2023-02-03T09:58:32;99177.31;;;2.42;100.00
60976;BME280;46849;48.154;17.042;2023-02-03T10:01:19;99162.94;;;2.63;100.00
60976;BME280;46849;48.154;17.042;2023-02-03T10:04:43;99156.59;;;2.74;100.00
60976;BME280;46849;48.154;17.042;2023-02-03T10:10:34;99147.19;;;3.00;100.00
60976;BME280;46849;48.154;17.042;2023-02-03T10:19:48;99133.72;;;2.88;100.00
60976;BME280;46849;48.154;17.042;2023-02-03T10:22:42;99139.47;;;2.98;100.00
60976;BME280;46849;48.154;17.042;2023-02-03T10:28:34;99127.97;;;3.07;100.00
60976;BME280;46849;48.154;17.042;2023-02-03T10:31:26;99132.75;;;3.19;100.00
60976;BME280;46849;48.154;17.042;2023-02-03T10:34:14;99124.69;;;3.29;100.00
60976;BME280;46849;48.154;17.042;2023-02-03T10:37:07;99122.22;;;3.51;100.00
60976;BME280;46849;48.154;17.042;2023-02-03T10:39:55;99100.44;;;3.82;100.00
60976;BME280;46849;48.154;17.042;2023-02-03T10:42:43;99092.66;;;4.06;100.00
60976;BME280;46849;48.154;17.042;2023-02-03T10:45:50;99091.97;;;4.03;100.00
60976;BME280;46849;48.154;17.042;2023-02-03T10:48:34;99078.03;;;4.05;100.00
60976;BME280;46849;48.154;17.042;2023-02-03T10:51:25;99072.38;;;4.18;100.00
60976;BME280;46849;48.154;17.042;2023-02-03T10:57:15;99062.25;;;4.36;100.00
60976;BME280;46849;48.154;17.042;2023-02-03T11:03:07;99048.09;;;4.43;100.00
60976;BME280;46849;48.154;17.042;2023-02-03T11:06:09;99045.56;;;4.41;100.00
60976;BME280;46849;48.154;17.042;2023-02-03T11:08:54;99031.41;;;4.50;100.00
60976;BME280;46849;48.154;17.042;2023-02-03T11:11:38;99025.19;;;4.54;100.00
60976;BME280;46849;48.154;17.042;2023-02-03T11:14:25;99010.09;;;4.42;100.00
60976;BME280;46849;48.154;17.042;2023-02-03T11:17:24;99035.63;;;4.53;100.00
60976;BME280;46849;48.154;17.042;2023-02-03T11:20:15;99016.66;;;4.51;100.00
60976;BME280;46849;48.154;17.042;2023-02-03T11:23:00;99020.59;;;4.61;99.65
60976;BME280;46849;48.154;17.042;2023-02-03T11:25:47;99008.47;;;4.62;99.63
60976;BME280;46849;48.154;17.042;2023-02-03T11:28:31;99001.19;;;4.70;98.85
60976;BME280;46849;48.154;17.042;2023-02-03T11:31:21;99002.91;;;4.71;97.98
60976;BME280;46849;48.154;17.042;2023-02-03T11:34:15;98988.94;;;4.74;97.88
60976;BME280;46849;48.154;17.042;2023-02-03T11:45:44;98942.09;;;4.77;96.63
60976;BME280;46849;48.154;17.042;2023-02-03T11:48:35;98953.59;;;4.92;95.86
60976;BME280;46849;48.154;17.042;2023-02-03T11:54:14;98919.53;;;5.78;100.00
60976;BME280;46849;48.154;17.042;2023-02-03T11:57:14;98926.91;;;6.62;100.00
60976;BME280;46849;48.154;17.042;2023-02-03T12:12:55;98899.91;;;4.92;100.00
60976;BME280;46849;48.154;17.042;2023-02-03T12:16:00;98884.69;;;4.85;100.00
60976;BME280;46849;48.154;17.042;2023-02-03T12:30:41;98853.94;;;5.35;100.00
60976;BME280;46849;48.154;17.042;2023-02-03T12:33:33;98797.19;;;5.25;100.00
60976;BME280;46849;48.154;17.042;2023-02-03T12:36:55;98837.19;;;5.02;100.00
60976;BME280;46849;48.154;17.042;2023-02-03T12:39:47;98822.91;;;4.91;100.00
60976;BME280;46849;48.154;17.042;2023-02-03T12:42:38;98833.16;;;4.95;100.00
60976;BME280;46849;48.154;17.042;2023-02-03T12:45:32;98824.00;;;4.66;100.00
60976;BME280;46849;48.154;17.042;2023-02-03T12:48:27;98814.00;;;4.78;100.00
60976;BME280;46849;48.154;17.042;2023-02-03T12:51:23;98793.97;;;4.61;100.00
60976;BME280;46849;48.154;17.042;2023-02-03T13:03:17;98756.94;;;4.36;100.00
60976;BME280;46849;48.154;17.042;2023-02-03T13:12:26;98731.06;;;4.35;100.00
60976;BME280;46849;48.154;17.042;2023-02-03T13:18:24;98720.56;;;4.38;100.00
60976;BME280;46849;48.154;17.042;2023-02-03T13:21:11;98729.97;;;4.40;100.00
60976;BME280;46849;48.154;17.042;2023-02-03T13:23:57;98726.13;;;4.49;100.00
60976;BME280;46849;48.154;17.042;2023-02-03T13:26:45;98716.88;;;4.63;100.00
60976;BME280;46849;48.154;17.042;2023-02-03T13:30:00;98723.44;;;4.72;100.00
60976;BME280;46849;48.154;17.042;2023-02-03T13:35:58;98708.09;;;4.65;100.00
60976;BME280;46849;48.154;17.042;2023-02-03T13:38:54;98704.56;;;4.68;100.00
60976;BME280;46849;48.154;17.042;2023-02-03T13:41:48;98703.28;;;4.77;100.00
60976;BME280;46849;48.154;17.042;2023-02-03T13:44:36;98700.75;;;4.75;100.00
60976;BME280;46849;48.154;17.042;2023-02-03T13:47:28;98691.06;;;4.60;100.00
60976;BME280;46849;48.154;17.042;2023-02-03T13:53:05;98694.16;;;4.87;100.00
60976;BME280;46849;48.154;17.042;2023-02-03T13:55:55;98686.38;;;4.87;98.88
60976;BME280;46849;48.154;17.042;2023-02-03T13:58:40;98692.56;;;4.85;100.00
60976;BME280;46849;48.154;17.042;2023-02-03T14:01:30;98708.00;;;4.88;99.87
60976;BME280;46849;48.154;17.042;2023-02-03T14:07:35;98697.63;;;4.88;100.00
60976;BME280;46849;48.154;17.042;2023-02-03T14:10:22;98703.78;;;4.85;100.00
60976;BME280;46849;48.154;17.042;2023-02-03T14:13:19;98704.19;;;4.76;100.00
60976;BME280;46849;48.154;17.042;2023-02-03T14:16:23;98692.53;;;4.65;100.00
60976;BME280;46849;48.154;17.042;2023-02-03T14:22:16;98699.34;;;4.49;100.00
60976;BME280;46849;48.154;17.042;2023-02-03T14:25:04;98709.00;;;4.45;100.00
60976;BME280;46849;48.154;17.042;2023-02-03T14:28:05;98703.03;;;4.43;100.00
60976;BME280;46849;48.154;17.042;2023-02-03T14:39:38;98682.28;;;3.82;100.00
60976;BME280;46849;48.154;17.042;2023-02-03T14:52:48;98648.59;;;3.82;100.00
60976;BME280;46849;48.154;17.042;2023-02-03T14:55:24;98640.50;;;3.90;100.00
60976;BME280;46849;48.154;17.042;2023-02-03T14:58:22;98654.16;;;3.93;100.00
60976;BME280;46849;48.154;17.042;2023-02-03T15:04:22;98640.63;;;3.87;100.00
60976;BME280;46849;48.154;17.042;2023-02-03T15:07:07;98631.75;;;3.92;100.00
60976;BME280;46849;48.154;17.042;2023-02-03T15:09:52;98628.75;;;4.02;100.00
60976;BME280;46849;48.154;17.042;2023-02-03T15:16:13;98638.09;;;4.06;100.00
60976;BME280;46849;48.154;17.042;2023-02-03T15:19:00;98638.09;;;4.06;100.00
60976;BME280;46849;48.154;17.042;2023-02-03T15:21:52;98617.41;;;4.04;100.00
60976;BME280;46849;48.154;17.042;2023-02-03T15:24:37;98622.47;;;4.07;100.00
60976;BME280;46849;48.154;17.042;2023-02-03T15:27:24;98610.31;;;4.08;100.00
60976;BME280;46849;48.154;17.042;2023-02-03T15:30:25;98617.41;;;4.04;100.00
60976;BME280;46849;48.154;17.042;2023-02-03T15:33:16;98633.41;;;4.14;100.00
60976;BME280;46849;48.154;17.042;2023-02-03T15:36:17;98633.34;;;4.16;100.00
60976;BME280;46849;48.154;17.042;2023-02-03T15:39:15;98621.75;;;4.23;100.00
60976;BME280;46849;48.154;17.042;2023-02-03T15:42:03;98597.38;;;4.27;100.00
60976;BME280;46849;48.154;17.042;2023-02-03T15:45:02;98597.25;;;4.30;100.00
60976;BME280;46849;48.154;17.042;2023-02-03T15:47:57;98598.34;;;4.25;100.00
60976;BME280;46849;48.154;17.042;2023-02-03T15:51:00;98582.56;;;4.29;100.00
60976;BME280;46849;48.154;17.042;2023-02-03T15:56:50;98573.75;;;4.34;100.00
60976;BME280;46849;48.154;17.042;2023-02-03T15:59:41;98549.50;;;4.35;100.00
60976;BME280;46849;48.154;17.042;2023-02-03T16:02:35;98549.13;;;4.42;100.00
60976;BME280;46849;48.154;17.042;2023-02-03T16:05:30;98542.97;;;4.45;100.00
60976;BME280;46849;48.154;17.042;2023-02-03T16:11:29;98524.66;;;4.48;100.00
60976;BME280;46849;48.154;17.042;2023-02-03T16:14:33;98520.44;;;4.46;100.00
60976;BME280;46849;48.154;17.042;2023-02-03T16:17:31;98519.00;;;4.40;100.00
60976;BME280;46849;48.154;17.042;2023-02-03T16:20:23;98510.16;;;4.44;100.00
60976;BME280;46849;48.154;17.042;2023-02-03T16:23:17;98514.22;;;4.50;100.00
60976;BME280;46849;48.154;17.042;2023-02-03T16:32:17;98499.19;;;4.56;100.00
60976;BME280;46849;48.154;17.042;2023-02-03T16:35:20;98495.38;;;4.64;100.00
60976;BME280;46849;48.154;17.042;2023-02-03T16:38:24;98493.63;;;4.64;100.00
60976;BME280;46849;48.154;17.042;2023-02-03T16:41:27;98500.50;;;4.65;100.00
60976;BME280;46849;48.154;17.042;2023-02-03T16:44:31;98490.19;;;4.64;100.00
60976;BME280;46849;48.154;17.042;2023-02-03T16:47:37;98492.03;;;4.62;100.00
60976;BME280;46849;48.154;17.042;2023-02-03T16:50:41;98495.69;;;4.58;100.00
60976;BME280;46849;48.154;17.042;2023-02-03T16:53:39;98478.91;;;4.65;100.00
60976;BME280;46849;48.154;17.042;2023-02-03T16:56:23;98494.41;;;4.66;100.00
60976;BME280;46849;48.154;17.042;2023-02-03T16:59:09;98477.00;;;4.68;100.00
60976;BME280;46849;48.154;17.042;2023-02-03T17:01:54;98489.06;;;4.70;100.00
60976;BME280;46849;48.154;17.042;2023-02-03T17:04:38;98478.69;;;4.70;99.50
60976;BME280;46849;48.154;17.042;2023-02-03T17:07:23;98460.69;;;4.66;100.00
60976;BME280;46849;48.154;17.042;2023-02-03T17:10:09;98476.00;;;4.71;100.00
60976;BME280;46849;48.154;17.042;2023-02-03T17:12:55;98473.88;;;4.62;100.00
60976;BME280;46849;48.154;17.042;2023-02-03T17:15:45;98481.13;;;4.55;100.00